Time;durP1;ratioP1;P1;durP2;ratioP2;P2;SDS_P1;SDS_P2;PMS_P1;PMS_P2;Temp;Humidity;BMP_temperature;BMP_pressure;BME280_temperature;BME280_humidity;BME280_pressure;Samples;Min_cycle;Max_cycle;Signal;HPM_P1;HPM_P2
2022/10/23 00:01:18;;;;;;;6.03;2.50;;;15.40;1.00;;;;;;5088282;28;20207;-75
2022/10/23 00:03:45;;;;;;;8.87;2.70;;;15.40;1.00;;;;;;5090467;28;20491;-74
2022/10/23 00:06:12;;;;;;;3.60;2.13;;;15.40;1.00;;;;;;5088693;28;20951;-76
2022/10/23 00:08:38;;;;;;;4.63;2.57;;;15.30;1.00;;;;;;5091314;28;20402;-76
2022/10/23 00:11:11;;;;;;;5.17;2.33;;;15.30;1.00;;;;;;5089677;28;20449;-76
2022/10/23 00:13:37;;;;;;;7.13;2.53;;;15.30;1.00;;;;;;5090819;28;20850;-75
2022/10/23 00:16:03;;;;;;;6.20;2.77;;;15.40;1.00;;;;;;5089836;28;20436;-75
2022/10/23 00:18:29;;;;;;;3.47;2.43;;;15.50;1.00;;;;;;5089147;28;20233;-75
2022/10/23 00:20:55;;;;;;;5.70;2.20;;;15.50;1.00;;;;;;5089004;28;20943;-74
2022/10/23 00:23:21;;;;;;;6.00;2.33;;;15.60;1.00;;;;;;5084002;28;20589;-74
2022/10/23 00:25:46;;;;;;;7.33;2.50;;;15.60;1.00;;;;;;5084087;28;20414;-75
2022/10/23 00:28:12;;;;;;;4.67;2.60;;;15.60;1.00;;;;;;5084022;28;20187;-75
2022/10/23 00:30:38;;;;;;;6.87;2.40;;;15.60;1.00;;;;;;5088099;28;20207;-74
2022/10/23 00:33:03;;;;;;;4.20;2.30;;;15.60;1.00;;;;;;5089093;28;20283;-75
2022/10/23 00:35:29;;;;;;;6.40;2.43;;;15.60;1.00;;;;;;5089680;28;20164;-76
2022/10/23 00:37:54;;;;;;;6.43;2.00;;;15.70;1.00;;;;;;5090810;28;20187;-74
2022/10/23 00:40:20;;;;;;;5.40;2.20;;;15.70;1.00;;;;;;5086829;28;20183;-75
2022/10/23 00:42:45;;;;;;;5.30;2.13;;;15.70;1.00;;;;;;5087023;28;20246;-74
2022/10/23 00:45:19;;;;;;;2.60;2.23;;;15.70;1.00;;;;;;5090551;28;20829;-75
2022/10/23 00:47:46;;;;;;;9.40;2.80;;;15.70;1.00;;;;;;5089496;28;20198;-74
2022/10/23 00:50:11;;;;;;;8.03;2.33;;;15.70;1.00;;;;;;5089139;28;20473;-74
2022/10/23 00:52:43;;;;;;;6.43;2.40;;;15.60;1.00;;;;;;5089420;28;20477;-78
2022/10/23 00:55:09;;;;;;;7.47;2.53;;;15.60;1.00;;;;;;5087670;28;20179;-74
2022/10/23 00:57:36;;;;;;;6.13;2.50;;;15.50;1.00;;;;;;5089904;28;20404;-76
2022/10/23 01:00:03;;;;;;;6.20;2.10;;;15.40;1.00;;;;;;5084486;28;20263;-75
2022/10/23 01:02:29;;;;;;;5.03;2.40;;;15.40;1.00;;;;;;5088275;28;20495;-75
2022/10/23 01:04:54;;;;;;;6.53;2.40;;;15.40;1.00;;;;;;5088313;28;20458;-75
2022/10/23 01:07:46;;;;;;;6.70;2.50;;;15.40;1.00;;;;;;5089588;28;20179;-75
2022/10/23 01:10:33;;;;;;;4.70;2.53;;;15.40;1.00;;;;;;5069957;28;20177;-75
2022/10/23 01:13:10;;;;;;;6.17;2.70;;;15.40;1.00;;;;;;5090950;28;20462;-76
2022/10/23 01:15:56;;;;;;;3.90;2.33;;;15.40;1.00;;;;;;5099219;28;20783;-76
2022/10/23 01:18:47;;;;;;;3.67;2.80;;;15.40;1.00;;;;;;5087821;28;20537;-76
2022/10/23 01:21:19;;;;;;;3.23;2.10;;;15.30;1.00;;;;;;5077789;28;20448;-75
2022/10/23 01:24:21;;;;;;;9.43;2.40;;;15.30;1.00;;;;;;5081027;28;20457;-75
2022/10/23 01:27:19;;;;;;;4.50;2.30;;;15.30;1.00;;;;;;5088194;28;20861;-75
2022/10/23 01:29:47;;;;;;;3.77;2.33;;;15.20;1.00;;;;;;5086323;28;20445;-75
2022/10/23 01:32:29;;;;;;;4.20;2.23;;;15.20;1.00;;;;;;5087963;28;20888;-75
2022/10/23 01:35:04;;;;;;;4.17;2.60;;;15.20;1.00;;;;;;5087706;28;20436;-75
2022/10/23 01:37:44;;;;;;;5.33;2.23;;;15.20;1.00;;;;;;5089240;28;20432;-76
2022/10/23 01:40:21;;;;;;;4.90;2.20;;;15.10;1.00;;;;;;5083989;28;20477;-75
2022/10/23 01:42:53;;;;;;;5.43;2.50;;;15.20;1.00;;;;;;5088434;28;20510;-75
2022/10/23 01:45:42;;;;;;;5.43;2.20;;;15.20;1.00;;;;;;5089409;28;20467;-76
2022/10/23 01:48:12;;;;;;;3.37;2.33;;;15.20;1.00;;;;;;5081640;28;20433;-75
2022/10/23 01:50:40;;;;;;;4.10;2.80;;;15.20;1.00;;;;;;5087431;28;20645;-75
2022/10/23 01:53:06;;;;;;;4.43;2.20;;;15.20;1.00;;;;;;5086121;28;20473;-75
2022/10/23 01:55:32;;;;;;;5.10;2.60;;;15.30;1.00;;;;;;5084068;28;20406;-75
2022/10/23 01:58:01;;;;;;;7.00;2.60;;;15.30;1.00;;;;;;5087840;28;20716;-75
2022/10/23 02:00:27;;;;;;;5.90;2.53;;;15.30;1.00;;;;;;5088670;28;20425;-75
2022/10/23 02:02:54;;;;;;;7.40;2.63;;;15.30;1.00;;;;;;5086437;28;20563;-75
2022/10/23 02:05:24;;;;;;;4.00;2.40;;;15.20;1.00;;;;;;5087597;28;20437;-77
2022/10/23 02:07:50;;;;;;;3.20;2.40;;;15.20;1.00;;;;;;5087337;28;20480;-75
2022/10/23 02:10:16;;;;;;;8.80;2.57;;;15.20;1.00;;;;;;5087510;28;20425;-75
2022/10/23 02:13:06;;;;;;;4.07;2.10;;;15.30;1.00;;;;;;5088257;28;20848;-75
2022/10/23 02:15:49;;;;;;;4.57;2.33;;;15.30;1.00;;;;;;5085285;28;20445;-75
2022/10/23 02:18:42;;;;;;;4.93;2.30;;;15.30;1.00;;;;;;5082494;28;20721;-76
2022/10/23 02:21:14;;;;;;;6.33;2.20;;;15.40;1.00;;;;;;5081197;28;20449;-75
2022/10/23 02:23:56;;;;;;;8.67;2.80;;;15.30;1.00;;;;;;5088870;28;20453;-75
2022/10/23 02:26:57;;;;;;;6.17;2.43;;;15.30;1.00;;;;;;5088698;28;20981;-75
2022/10/23 02:29:51;;;;;;;4.60;2.37;;;15.30;1.00;;;;;;5071348;28;20523;-76
2022/10/23 02:32:19;;;;;;;4.83;2.27;;;15.30;1.00;;;;;;5088109;28;20465;-74
2022/10/23 02:34:44;;;;;;;4.80;2.50;;;15.40;1.00;;;;;;5086765;28;20426;-75
2022/10/23 02:37:10;;;;;;;3.87;2.50;;;15.30;1.00;;;;;;5088846;28;20416;-75
2022/10/23 02:39:36;;;;;;;4.97;2.37;;;15.30;1.00;;;;;;5086621;28;20182;-76
2022/10/23 02:42:23;;;;;;;6.60;2.10;;;15.30;1.00;;;;;;5089612;28;20304;-75
2022/10/23 02:45:07;;;;;;;4.20;2.20;;;15.30;1.00;;;;;;5093100;28;20525;-75
2022/10/23 02:47:44;;;;;;;4.53;2.10;;;15.30;1.00;;;;;;5091608;28;20444;-75
2022/10/23 02:50:48;;;;;;;4.87;2.27;;;15.30;1.00;;;;;;5084936;28;20522;-74
2022/10/23 02:53:23;;;;;;;5.67;2.93;;;15.30;1.00;;;;;;5081106;28;20468;-76
2022/10/23 02:56:04;;;;;;;4.10;2.00;;;15.30;1.00;;;;;;5091155;28;20478;-78
2022/10/23 02:58:58;;;;;;;5.20;2.17;;;15.20;1.00;;;;;;5091649;28;20525;-74
2022/10/23 03:01:35;;;;;;;4.07;2.40;;;15.20;1.00;;;;;;5088898;28;20520;-76
2022/10/23 03:04:04;;;;;;;3.47;2.23;;;15.30;1.00;;;;;;5083904;28;20493;-74
2022/10/23 03:06:31;;;;;;;3.93;2.50;;;15.30;1.00;;;;;;5087593;28;20437;-76
2022/10/23 03:09:03;;;;;;;4.30;2.30;;;15.20;1.00;;;;;;5091627;28;20414;-75
2022/10/23 03:11:29;;;;;;;4.73;2.50;;;15.30;1.00;;;;;;5089749;28;20824;-74
2022/10/23 03:13:55;;;;;;;7.17;2.70;;;15.30;1.00;;;;;;5091461;28;20457;-74
2022/10/23 03:16:20;;;;;;;4.33;2.20;;;15.30;1.00;;;;;;5091429;28;20195;-76
2022/10/23 03:18:46;;;;;;;8.10;2.47;;;15.30;1.00;;;;;;5090666;28;20199;-76
2022/10/23 03:21:11;;;;;;;3.67;2.33;;;15.90;1.00;;;;;;5090305;28;20349;-74
2022/10/23 03:23:37;;;;;;;6.47;2.40;;;15.30;1.00;;;;;;5085779;28;20179;-75
2022/10/23 03:26:03;;;;;;;2.90;2.10;;;15.40;1.00;;;;;;5090541;28;20251;-75
2022/10/23 03:28:29;;;;;;;4.80;2.40;;;15.40;1.00;;;;;;5090201;28;20188;-76
2022/10/23 03:30:55;;;;;;;4.63;2.60;;;15.40;1.00;;;;;;5090514;28;20529;-75
2022/10/23 03:33:21;;;;;;;3.10;2.00;;;15.40;1.00;;;;;;5086934;28;20199;-75
2022/10/23 03:35:47;;;;;;;3.13;2.03;;;15.40;1.00;;;;;;5089409;28;20657;-75
2022/10/23 03:38:13;;;;;;;5.00;2.33;;;15.40;1.00;;;;;;5090642;28;20436;-74
2022/10/23 03:40:39;;;;;;;8.70;2.57;;;15.40;1.00;;;;;;5091587;28;20492;-75
2022/10/23 03:43:04;;;;;;;3.37;2.37;;;15.30;1.00;;;;;;5090504;28;20289;-75
2022/10/23 03:45:31;;;;;;;4.63;2.57;;;15.30;1.00;;;;;;5091235;28;20189;-76
2022/10/23 03:47:57;;;;;;;3.80;2.23;;;15.30;1.00;;;;;;5088854;28;20182;-75
2022/10/23 03:50:22;;;;;;;2.33;2.10;;;15.20;1.00;;;;;;5089948;28;20781;-75
2022/10/23 03:52:48;;;;;;;4.60;2.27;;;15.20;1.00;;;;;;5089172;28;20203;-76
2022/10/23 03:55:13;;;;;;;5.20;2.20;;;15.20;1.00;;;;;;5084915;28;20671;-75
2022/10/23 03:57:39;;;;;;;4.10;2.07;;;15.20;1.00;;;;;;5090351;28;20640;-77
2022/10/23 04:00:06;;;;;;;5.97;2.47;;;15.30;1.00;;;;;;5089335;28;20693;-77
2022/10/23 04:02:31;;;;;;;3.70;2.00;;;15.30;1.00;;;;;;5086379;28;20187;-74
2022/10/23 04:04:57;;;;;;;6.50;2.10;;;16.60;1.00;;;;;;5090633;28;20904;-77
2022/10/23 04:07:22;;;;;;;6.00;2.30;;;15.20;1.00;;;;;;5088851;28;20188;-75
2022/10/23 04:09:48;;;;;;;8.37;2.13;;;15.20;1.00;;;;;;5090873;28;20612;-77
2022/10/23 04:12:13;;;;;;;4.87;2.40;;;15.10;1.00;;;;;;5088628;28;20234;-75
2022/10/23 04:14:39;;;;;;;9.60;2.57;;;15.00;1.00;;;;;;5090423;28;20603;-76
2022/10/23 04:17:04;;;;;;;5.33;2.93;;;15.00;1.00;;;;;;5090366;28;20259;-77
2022/10/23 04:19:30;;;;;;;2.80;1.90;;;14.90;1.00;;;;;;5087851;28;20258;-75
2022/10/23 04:21:56;;;;;;;2.90;2.30;;;14.90;1.00;;;;;;5091070;28;20191;-77
2022/10/23 04:24:23;;;;;;;7.10;2.30;;;14.90;1.00;;;;;;5084511;28;20584;-75
2022/10/23 04:26:48;;;;;;;6.17;2.30;;;14.90;1.00;;;;;;5089101;28;20180;-76
2022/10/23 04:29:14;;;;;;;4.67;2.50;;;14.90;1.00;;;;;;5089358;28;20800;-77
2022/10/23 04:31:39;;;;;;;8.30;2.10;;;15.00;1.00;;;;;;5087509;28;20278;-78
2022/10/23 04:34:05;;;;;;;3.40;2.40;;;16.70;1.00;;;;;;5089808;28;20199;-76
2022/10/23 04:36:30;;;;;;;6.27;2.43;;;14.90;1.00;;;;;;5090123;28;20673;-75
2022/10/23 04:38:56;;;;;;;5.27;2.13;;;15.00;1.00;;;;;;5090441;28;20179;-75
2022/10/23 04:41:21;;;;;;;4.93;2.30;;;15.00;1.00;;;;;;5089690;28;20637;-76
2022/10/23 04:43:47;;;;;;;4.20;2.50;;;15.00;1.00;;;;;;5090076;28;20191;-75
2022/10/23 04:46:12;;;;;;;6.60;2.30;;;15.00;1.00;;;;;;5087478;28;20222;-75
2022/10/23 04:48:38;;;;;;;3.57;2.40;;;14.90;1.00;;;;;;5086932;28;20192;-76
2022/10/23 04:51:05;;;;;;;5.70;2.37;;;14.90;1.00;;;;;;5088090;28;20221;-75
2022/10/23 04:53:31;;;;;;;4.30;2.37;;;14.90;1.00;;;;;;5078208;28;20205;-75
2022/10/23 04:55:57;;;;;;;8.20;2.90;;;14.90;1.00;;;;;;5088272;28;20413;-76
2022/10/23 04:58:24;;;;;;;7.20;2.60;;;14.90;1.00;;;;;;5088996;28;20654;-76
2022/10/23 05:00:50;;;;;;;3.93;2.50;;;14.90;1.00;;;;;;5089673;28;20402;-77
2022/10/23 05:03:17;;;;;;;5.20;2.20;;;14.80;1.00;;;;;;5089727;28;21018;-74
2022/10/23 05:05:43;;;;;;;2.50;2.10;;;14.90;1.00;;;;;;5089681;28;20226;-75
2022/10/23 05:08:09;;;;;;;5.77;2.50;;;15.00;1.00;;;;;;5088290;28;20434;-75
2022/10/23 05:10:34;;;;;;;5.07;2.30;;;15.00;1.00;;;;;;5090057;28;20804;-74
2022/10/23 05:13:01;;;;;;;3.80;2.43;;;15.10;1.00;;;;;;5092728;28;20211;-74
2022/10/23 05:15:26;;;;;;;4.70;2.20;;;15.10;1.00;;;;;;5094463;28;20172;-74
2022/10/23 05:17:57;;;;;;;6.23;2.80;;;15.20;1.00;;;;;;5087405;28;20475;-75
2022/10/23 05:20:27;;;;;;;6.03;3.43;;;15.30;1.00;;;;;;5088356;28;20203;-74
2022/10/23 05:22:55;;;;;;;3.50;2.10;;;15.20;1.00;;;;;;5091575;28;20492;-75
2022/10/23 05:25:21;;;;;;;7.63;2.27;;;15.20;1.00;;;;;;5099898;28;20460;-74
2022/10/23 05:27:47;;;;;;;3.50;2.00;;;15.20;1.00;;;;;;5088773;28;20495;-75
2022/10/23 05:30:13;;;;;;;3.63;2.90;;;15.30;1.00;;;;;;5087861;28;20506;-75
2022/10/23 05:32:39;;;;;;;8.00;3.20;;;15.30;1.00;;;;;;5086419;28;20721;-75
2022/10/23 05:35:11;;;;;;;8.13;2.60;;;15.30;1.00;;;;;;5088089;28;20510;-75
2022/10/23 05:37:38;;;;;;;5.70;2.30;;;15.30;1.00;;;;;;5087795;28;20528;-76
2022/10/23 05:40:05;;;;;;;3.40;2.20;;;15.30;1.00;;;;;;5089503;28;20555;-75
2022/10/23 05:42:30;;;;;;;3.90;2.10;;;15.40;1.00;;;;;;5080236;28;20549;-75
2022/10/23 05:44:56;;;;;;;6.37;1.93;;;15.40;1.00;;;;;;5089464;28;20710;-75
2022/10/23 05:47:21;;;;;;;5.40;2.30;;;15.50;1.00;;;;;;5087250;28;20523;-74
2022/10/23 05:49:47;;;;;;;4.37;2.00;;;15.50;1.00;;;;;;5088643;28;20191;-76
2022/10/23 05:52:12;;;;;;;7.70;2.00;;;15.50;1.00;;;;;;5088243;28;20203;-75
2022/10/23 05:54:38;;;;;;;6.23;2.20;;;15.50;1.00;;;;;;5083876;28;20175;-74
2022/10/23 05:57:04;;;;;;;4.93;1.90;;;15.50;1.00;;;;;;5088051;28;20655;-76
2022/10/23 05:59:29;;;;;;;10.43;2.17;;;15.40;1.00;;;;;;5088979;28;20184;-76
2022/10/23 06:01:55;;;;;;;10.73;2.10;;;15.40;1.00;;;;;;5087956;28;20553;-75
2022/10/23 06:04:20;;;;;;;3.33;2.13;;;15.30;1.00;;;;;;5089280;28;20178;-75
2022/10/23 06:06:46;;;;;;;5.50;2.00;;;15.30;1.00;;;;;;5089527;28;20179;-75
2022/10/23 06:09:13;;;;;;;2.13;1.80;;;15.20;1.00;;;;;;5086568;28;20176;-76
2022/10/23 06:11:39;;;;;;;3.43;2.10;;;15.20;1.00;;;;;;5087409;28;20712;-77
2022/10/23 06:14:06;;;;;;;2.97;2.10;;;15.20;1.00;;;;;;5088127;28;20457;-75
2022/10/23 06:16:31;;;;;;;5.87;2.60;;;15.20;1.00;;;;;;5089432;28;20159;-76
2022/10/23 06:18:57;;;;;;;6.70;1.90;;;15.20;1.00;;;;;;5082779;28;20475;-75
2022/10/23 06:21:22;;;;;;;5.00;2.23;;;15.20;1.00;;;;;;5092497;28;20669;-75
2022/10/23 06:23:48;;;;;;;9.43;2.03;;;15.20;1.00;;;;;;5085555;28;20539;-76
2022/10/23 06:26:15;;;;;;;4.33;2.17;;;15.20;1.00;;;;;;5094055;28;20550;-76
2022/10/23 06:28:41;;;;;;;4.00;2.20;;;15.20;1.00;;;;;;5094260;28;20211;-76
2022/10/23 06:31:09;;;;;;;4.40;1.90;;;15.20;1.00;;;;;;5093656;28;20900;-76
2022/10/23 06:33:35;;;;;;;5.80;2.33;;;15.30;1.00;;;;;;5088654;28;20294;-77
2022/10/23 06:36:02;;;;;;;3.10;2.20;;;15.40;1.00;;;;;;5092656;28;20422;-77
2022/10/23 06:38:28;;;;;;;4.50;2.27;;;15.40;1.00;;;;;;5092553;28;20440;-76
2022/10/23 06:40:55;;;;;;;5.40;2.30;;;15.40;1.00;;;;;;5093855;28;20426;-76
2022/10/23 06:43:21;;;;;;;3.30;1.83;;;15.40;1.00;;;;;;5088189;28;20655;-76
2022/10/23 06:45:47;;;;;;;4.30;1.83;;;15.40;1.00;;;;;;5092302;28;20413;-76
2022/10/23 06:48:13;;;;;;;5.13;1.97;;;15.40;1.00;;;;;;5092153;28;20425;-76
2022/10/23 06:50:39;;;;;;;9.40;2.23;;;15.50;1.00;;;;;;5098947;28;20474;-76
2022/10/23 06:53:05;;;;;;;1.97;1.77;;;15.50;1.00;;;;;;5091507;28;20457;-75
2022/10/23 06:55:32;;;;;;;3.83;1.97;;;15.60;1.00;;;;;;5092492;28;20190;-76
2022/10/23 06:57:57;;;;;;;2.70;1.77;;;15.70;1.00;;;;;;5089615;28;20511;-77
2022/10/23 07:00:23;;;;;;;10.17;2.20;;;15.80;1.00;;;;;;5092989;28;20888;-76
2022/10/23 07:02:50;;;;;;;5.80;1.73;;;15.80;1.00;;;;;;5091183;28;20606;-76
2022/10/23 07:05:16;;;;;;;6.10;2.10;;;15.90;1.00;;;;;;5091945;28;20491;-77
2022/10/23 07:07:42;;;;;;;5.10;1.90;;;16.10;1.00;;;;;;5095610;28;20428;-77
2022/10/23 07:10:08;;;;;;;3.00;2.03;;;16.30;1.00;;;;;;5090370;28;20657;-77
2022/10/23 07:12:33;;;;;;;3.73;2.90;;;16.40;1.00;;;;;;5091581;28;20577;-78
2022/10/23 07:14:59;;;;;;;4.03;2.40;;;16.40;1.00;;;;;;5094529;28;20204;-77
2022/10/23 07:17:24;;;;;;;6.07;2.23;;;16.50;1.00;;;;;;5091906;28;20275;-78
2022/10/23 07:19:50;;;;;;;5.40;2.57;;;16.60;1.00;;;;;;5088985;28;20911;-78
2022/10/23 07:22:15;;;;;;;3.70;2.50;;;16.80;1.00;;;;;;5099074;28;20748;-78
2022/10/23 07:24:41;;;;;;;4.00;2.00;;;16.90;1.00;;;;;;5095376;28;20542;-77
2022/10/23 07:27:07;;;;;;;2.97;2.10;;;17.10;1.00;;;;;;5092661;28;20191;-77
2022/10/23 07:29:32;;;;;;;2.87;2.03;;;17.30;1.00;;;;;;5091493;28;20199;-76
2022/10/23 07:32:01;;;;;;;4.20;2.30;;;17.50;1.00;;;;;;5090826;28;20226;-76
2022/10/23 07:34:27;;;;;;;4.53;2.07;;;17.40;1.00;;;;;;5091203;28;20183;-77
2022/10/23 07:36:53;;;;;;;3.23;2.10;;;17.30;1.00;;;;;;5087161;28;20421;-76
2022/10/23 07:39:21;;;;;;;2.43;1.90;;;17.70;1.00;;;;;;5093522;28;20593;-76
2022/10/23 07:41:47;;;;;;;6.80;2.10;;;17.20;1.00;;;;;;5089474;28;20434;-76
2022/10/23 07:44:13;;;;;;;2.07;1.73;;;17.20;1.00;;;;;;5085689;28;20434;-78
2022/10/23 07:46:38;;;;;;;3.80;2.00;;;17.20;1.00;;;;;;5079846;28;20427;-74
2022/10/23 07:49:04;;;;;;;3.67;2.00;;;17.30;1.00;;;;;;5081522;28;20245;-76
2022/10/23 07:51:30;;;;;;;4.63;2.30;;;17.30;1.00;;;;;;5083398;28;20200;-76
2022/10/23 07:53:55;;;;;;;5.30;2.00;;;17.30;1.00;;;;;;5088956;28;20203;-74
2022/10/23 07:56:28;;;;;;;7.83;2.03;;;17.40;1.00;;;;;;5089718;28;20168;-76
2022/10/23 07:58:54;;;;;;;2.67;1.90;;;17.50;1.00;;;;;;5088482;28;20176;-77
2022/10/23 08:01:32;;;;;;;11.90;1.60;;;17.70;1.00;;;;;;5090454;28;20998;-77
2022/10/23 08:03:57;;;;;;;2.47;2.00;;;17.60;1.00;;;;;;5087479;28;20218;-76
2022/10/23 08:06:23;;;;;;;2.70;1.80;;;17.60;1.00;;;;;;5089982;28;20860;-76
2022/10/23 08:08:49;;;;;;;6.97;2.10;;;17.70;1.00;;;;;;5091944;28;20300;-76
2022/10/23 08:11:23;;;;;;;2.77;2.03;;;17.80;1.00;;;;;;5091737;28;20192;-77
2022/10/23 08:13:50;;;;;;;5.53;2.30;;;17.90;1.00;;;;;;5091459;28;20298;-78
2022/10/23 08:16:15;;;;;;;5.00;2.30;;;18.20;1.00;;;;;;5091660;28;20410;-76
2022/10/23 08:18:44;;;;;;;3.47;2.10;;;18.40;1.00;;;;;;5091358;28;20410;-77
2022/10/23 08:21:10;;;;;;;6.37;2.20;;;18.60;1.00;;;;;;5089800;28;20283;-78
2022/10/23 08:23:35;;;;;;;3.80;2.20;;;18.80;1.00;;;;;;5091436;28;21053;-78
2022/10/23 08:26:04;;;;;;;11.33;5.30;;;18.90;1.00;;;;;;5091218;28;20203;-76
2022/10/23 08:28:29;;;;;;;4.40;2.37;;;19.20;1.00;;;;;;5091037;28;20179;-76
2022/10/23 08:30:55;;;;;;;3.63;2.60;;;19.40;1.00;;;;;;5090878;28;20440;-76
2022/10/23 08:33:21;;;;;;;6.57;2.60;;;19.60;1.00;;;;;;5091190;28;20243;-76
2022/10/23 08:35:46;;;;;;;4.30;1.63;;;19.80;1.00;;;;;;5091013;28;20164;-76
2022/10/23 08:38:12;;;;;;;3.67;1.90;;;20.00;1.00;;;;;;5091337;28;20534;-75
2022/10/23 08:40:43;;;;;;;3.67;2.20;;;20.10;1.00;;;;;;5089586;28;20478;-76
2022/10/23 08:43:34;;;;;;;4.43;1.83;;;20.70;1.00;;;;;;5089459;28;20722;-76
2022/10/23 08:46:15;;;;;;;5.10;2.13;;;21.60;1.00;;;;;;5090840;28;20414;-74
2022/10/23 08:48:47;;;;;;;3.77;1.90;;;22.00;1.00;;;;;;5090634;28;21094;-76
2022/10/23 08:51:30;;;;;;;9.27;2.30;;;21.80;1.00;;;;;;5089102;28;20441;-77
2022/10/23 08:54:10;;;;;;;3.60;2.10;;;21.50;1.00;;;;;;5091008;28;20492;-76
2022/10/23 08:56:41;;;;;;;4.50;2.10;;;21.90;1.00;;;;;;5089475;28;20417;-77
2022/10/23 08:59:28;;;;;;;3.10;1.73;;;22.60;1.00;;;;;;5090889;28;20482;-76
2022/10/23 09:02:02;;;;;;;3.60;2.00;;;23.50;1.00;;;;;;5089868;28;20425;-78
2022/10/23 09:04:28;;;;;;;5.13;1.90;;;24.10;1.00;;;;;;5089265;28;20401;-77
2022/10/23 09:07:11;;;;;;;4.60;1.67;;;24.20;1.00;;;;;;5090250;28;20420;-77
2022/10/23 09:10:02;;;;;;;4.33;1.90;;;24.80;1.00;;;;;;5091875;28;20628;-77
2022/10/23 09:12:30;;;;;;;3.13;1.80;;;25.80;1.00;;;;;;5090092;28;20456;-77
2022/10/23 09:15:02;;;;;;;5.77;2.30;;;26.00;1.00;;;;;;5091620;28;20737;-77
2022/10/23 09:17:33;;;;;;;4.73;1.73;;;26.20;1.00;;;;;;5089659;28;20808;-77
2022/10/23 09:20:21;;;;;;;4.20;1.63;;;26.60;1.00;;;;;;5082993;28;20421;-77
2022/10/23 09:22:49;;;;;;;2.80;1.60;;;27.00;1.00;;;;;;5090881;28;21219;-80
2022/10/23 09:25:21;;;;;;;3.73;1.80;;;27.20;1.00;;;;;;5085870;28;20437;-77
2022/10/23 09:27:49;;;;;;;4.68;2.10;;;26.90;1.00;;;;;;5087133;28;20516;-77
2022/10/23 09:30:44;;;;;;;6.90;2.00;;;26.50;1.00;;;;;;5088322;28;20464;-77
2022/10/23 09:33:20;;;;;;;2.93;1.70;;;26.00;1.00;;;;;;5080375;28;20959;-78
2022/10/23 09:35:58;;;;;;;3.23;1.83;;;25.70;1.00;;;;;;5089520;28;20431;-77
2022/10/23 09:38:47;;;;;;;6.30;2.27;;;26.00;1.00;;;;;;5091055;28;20444;-78
2022/10/23 09:41:35;;;;;;;6.03;2.03;;;26.80;1.00;;;;;;5082837;28;20813;-77
2022/10/23 09:44:22;;;;;;;4.53;1.90;;;27.60;1.00;;;;;;5080452;28;20437;-77
2022/10/23 09:46:54;;;;;;;5.13;1.90;;;28.60;1.00;;;;;;5078298;28;20488;-79
2022/10/23 09:49:24;;;;;;;5.43;2.50;;;29.10;1.00;;;;;;5079046;28;20191;-78
2022/10/23 09:52:27;;;;;;;5.27;2.10;;;29.80;1.00;;;;;;5082690;28;20225;-78
2022/10/23 09:54:59;;;;;;;6.10;1.90;;;31.10;1.00;;;;;;5085806;28;20190;-78
2022/10/23 09:57:32;;;;;;;3.10;1.60;;;31.80;1.00;;;;;;5082577;28;20175;-80
2022/10/23 10:00:03;;;;;;;3.45;1.70;;;31.80;1.00;;;;;;5085715;28;20181;-78
2022/10/23 10:02:35;;;;;;;4.97;1.77;;;31.60;1.00;;;;;;5082648;28;20210;-78
2022/10/23 10:05:25;;;;;;;6.90;1.70;;;30.40;1.00;;;;;;5088649;28;20605;-78
2022/10/23 10:07:59;;;;;;;4.70;1.60;;;29.60;1.00;;;;;;5089506;28;20210;-78
2022/10/23 10:10:33;;;;;;;7.23;1.90;;;29.90;1.00;;;;;;5081615;28;20684;-77
2022/10/23 10:13:09;;;;;;;4.00;1.70;;;29.20;1.00;;;;;;5088192;28;20241;-77
2022/10/23 10:15:49;;;;;;;5.73;2.20;;;27.40;1.00;;;;;;5086500;28;20679;-79
2022/10/23 10:18:30;;;;;;;6.73;2.10;;;25.70;1.00;;;;;;5081479;28;20180;-78
2022/10/23 10:21:26;;;;;;;4.43;1.77;;;24.40;1.00;;;;;;5080739;28;20457;-78
2022/10/23 10:23:57;;;;;;;3.50;1.97;;;23.80;1.00;;;;;;5086693;28;20791;-78
2022/10/23 10:26:57;;;;;;;10.87;2.30;;;23.80;1.00;;;;;;5087570;28;20428;-78
2022/10/23 10:29:51;;;;;;;4.57;2.20;;;23.60;1.00;;;;;;5081882;28;20574;-78
2022/10/23 10:32:26;;;;;;;4.40;2.17;;;23.70;1.00;;;;;;5077032;28;20470;-77
2022/10/23 10:35:18;;;;;;;6.27;2.20;;;24.10;1.00;;;;;;5087203;28;20433;-78
2022/10/23 10:37:54;;;;;;;4.33;2.37;;;24.30;1.00;;;;;;5086509;28;20409;-79
2022/10/23 10:40:29;;;;;;;3.30;2.00;;;24.20;1.00;;;;;;5086548;28;20458;-78
2022/10/23 10:43:09;;;;;;;3.27;1.90;;;24.50;1.00;;;;;;5087584;28;21033;-77
2022/10/23 10:45:38;;;;;;;6.93;1.90;;;24.70;1.00;;;;;;5088443;28;20423;-78
2022/10/23 10:48:41;;;;;;;3.90;1.80;;;25.00;1.00;;;;;;5087610;28;20427;-78
2022/10/23 10:51:26;;;;;;;11.10;2.00;;;25.30;1.00;;;;;;5082063;28;20485;-78
2022/10/23 10:54:21;;;;;;;5.37;1.90;;;25.60;1.00;;;;;;5085916;28;20496;-78
2022/10/23 10:56:47;;;;;;;4.23;2.20;;;26.30;1.00;;;;;;5087081;28;20458;-78
2022/10/23 10:59:29;;;;;;;6.30;2.10;;;26.60;1.00;;;;;;5086675;28;20421;-78
2022/10/23 11:02:36;;;;;;;4.80;2.00;;;26.40;1.00;;;;;;5086883;28;20544;-78
2022/10/23 11:05:12;;;;;;;3.57;2.10;;;26.30;1.00;;;;;;5081676;28;20764;-77
2022/10/23 11:07:45;;;;;;;3.33;1.87;;;28.00;1.00;;;;;;5091154;28;20470;-78
2022/10/23 11:10:16;;;;;;;5.30;2.07;;;29.10;1.00;;;;;;5092791;28;20413;-78
2022/10/23 11:12:44;;;;;;;3.43;1.90;;;28.30;1.00;;;;;;5088998;28;20464;-77
2022/10/23 11:15:13;;;;;;;2.90;1.80;;;27.00;1.00;;;;;;5091957;28;20412;-77
2022/10/23 11:17:46;;;;;;;4.27;1.80;;;25.70;1.00;;;;;;5090125;28;20429;-79
2022/10/23 11:20:17;;;;;;;3.73;1.90;;;24.80;1.00;;;;;;5091988;28;20437;-78
2022/10/23 11:23:01;;;;;;;3.60;1.87;;;24.40;1.00;;;;;;5091271;28;20456;-78
2022/10/23 11:25:46;;;;;;;10.40;1.93;;;24.30;1.00;;;;;;5092484;28;20432;-78
2022/10/23 11:28:38;;;;;;;5.37;1.80;;;24.50;1.00;;;;;;5088974;28;20432;-78
2022/10/23 11:31:36;;;;;;;5.00;1.90;;;25.30;1.00;;;;;;5085724;28;20465;-79
2022/10/23 11:34:46;;;;;;;3.90;2.00;;;26.00;1.00;;;;;;5082003;28;20471;-79
2022/10/23 11:37:17;;;;;;;3.53;1.90;;;27.20;1.00;;;;;;5083483;28;20476;-79
2022/10/23 11:40:07;;;;;;;2.60;1.70;;;27.80;1.00;;;;;;5091789;28;20980;-78
2022/10/23 11:42:47;;;;;;;4.87;1.87;;;27.60;1.00;;;;;;5087450;28;21014;-78
2022/10/23 11:45:35;;;;;;;6.80;1.77;;;26.90;1.00;;;;;;5079950;28;20558;-79
2022/10/23 11:48:04;;;;;;;2.77;1.90;;;26.10;1.00;;;;;;5084085;28;20845;-78
2022/10/23 11:50:36;;;;;;;4.63;1.70;;;26.10;1.00;;;;;;5087038;28;20421;-78
2022/10/23 11:53:09;;;;;;;4.20;1.97;;;28.10;1.00;;;;;;5083448;28;20465;-78
2022/10/23 11:55:36;;;;;;;3.97;2.03;;;30.50;1.00;;;;;;5091326;28;20413;-78
2022/10/23 11:58:14;;;;;;;2.90;1.90;;;30.80;1.00;;;;;;5084432;28;20178;-78
2022/10/23 12:01:04;;;;;;;6.82;2.00;;;32.30;1.00;;;;;;5078697;28;20184;-78
2022/10/23 12:03:48;;;;;;;4.00;1.70;;;34.70;1.00;;;;;;5088048;28;20261;-79
2022/10/23 12:06:22;;;;;;;2.88;1.55;;;36.70;1.00;;;;;;5084612;28;20728;-79
2022/10/23 12:08:52;;;;;;;2.72;1.30;;;37.90;1.00;;;;;;5088038;28;20180;-79
2022/10/23 12:11:27;;;;;;;3.95;1.60;;;37.60;1.00;;;;;;5082285;28;20597;-79
2022/10/23 12:13:52;;;;;;;5.13;2.20;;;37.30;1.00;;;;;;5086843;28;20201;-80
2022/10/23 12:16:18;;;;;;;4.30;1.65;;;37.40;1.00;;;;;;5089969;28;20167;-78
2022/10/23 12:18:52;;;;;;;3.63;1.70;;;36.40;1.00;;;;;;5085124;28;20179;-77
2022/10/23 12:21:26;;;;;;;2.50;1.52;;;34.70;1.00;;;;;;5090972;28;20191;-78
2022/10/23 12:24:09;;;;;;;2.30;1.48;;;33.40;1.00;;;;;;5082308;28;20442;-78
2022/10/23 12:26:53;;;;;;;3.42;1.48;;;32.10;1.00;;;;;;5081365;28;20229;-77
2022/10/23 12:29:44;;;;;;;3.75;1.50;;;30.90;1.00;;;;;;5081672;28;20560;-78
2022/10/23 12:32:15;;;;;;;3.33;1.52;;;30.00;1.00;;;;;;5088658;28;20207;-77
2022/10/23 12:34:56;;;;;;;4.88;1.70;;;29.90;1.00;;;;;;5087353;28;20186;-79
2022/10/23 12:37:40;;;;;;;4.07;1.67;;;30.30;1.00;;;;;;5087319;28;20181;-78
2022/10/23 12:40:08;;;;;;;5.05;1.70;;;31.60;1.00;;;;;;5088488;28;20225;-78
2022/10/23 12:42:34;;;;;;;3.40;2.00;;;32.80;1.00;;;;;;5087581;28;20217;-78
2022/10/23 12:45:18;;;;;;;4.50;1.67;;;33.80;1.00;;;;;;5073115;28;20171;-78
2022/10/23 12:47:45;;;;;;;4.32;1.70;;;34.10;1.00;;;;;;5083838;28;20201;-77
2022/10/23 12:50:29;;;;;;;5.10;1.65;;;33.70;1.00;;;;;;5087954;28;20190;-78
2022/10/23 12:52:55;;;;;;;3.05;1.45;;;33.50;1.00;;;;;;5090119;28;20236;-79
2022/10/23 12:55:23;;;;;;;4.55;1.80;;;33.10;1.00;;;;;;5085278;28;20180;-78
2022/10/23 12:57:48;;;;;;;4.28;1.40;;;33.50;1.00;;;;;;5084586;28;20206;-79
2022/10/23 13:00:17;;;;;;;3.50;1.70;;;34.50;1.00;;;;;;5085567;28;20198;-78
2022/10/23 13:02:43;;;;;;;8.65;1.92;;;34.70;1.00;;;;;;5087200;28;20693;-80
2022/10/23 13:05:14;;;;;;;6.55;1.63;;;34.40;1.00;;;;;;5082783;28;20294;-79
2022/10/23 13:07:44;;;;;;;3.50;1.60;;;33.20;1.00;;;;;;5087539;28;20646;-78
2022/10/23 13:10:15;;;;;;;4.15;1.60;;;32.00;1.00;;;;;;5088657;28;20176;-79
2022/10/23 13:12:46;;;;;;;2.47;1.42;;;31.00;1.00;;;;;;5087127;28;20263;-79
2022/10/23 13:15:19;;;;;;;3.50;1.60;;;30.00;1.00;;;;;;5088829;28;20233;-78
2022/10/23 13:18:00;;;;;;;5.00;1.70;;;29.00;1.00;;;;;;5089596;28;20613;-78
2022/10/23 13:20:33;;;;;;;4.63;1.67;;;28.30;1.00;;;;;;5085898;28;20179;-78
2022/10/23 13:23:14;;;;;;;3.35;1.55;;;28.10;1.00;;;;;;5088225;28;20210;-78